sensor_id;sensor_type;location;lat;lon;timestamp;pressure;altitude;pressure_sealevel;temperature;humidity
72370;BME280;60343;-32.030;115.880;2022-08-19T00:02:01;103122.06;;;12.85;86.64
72370;BME280;60343;-32.030;115.880;2022-08-19T00:04:31;103127.78;;;12.92;86.13
72370;BME280;60343;-32.030;115.880;2022-08-19T00:06:59;103138.16;;;12.96;84.69
72370;BME280;60343;-32.030;115.880;2022-08-19T00:09:28;103124.31;;;13.01;82.95
72370;BME280;60343;-32.030;115.880;2022-08-19T00:11:56;103123.28;;;13.13;78.81
72370;BME280;60343;-32.030;115.880;2022-08-19T00:14:25;103129.09;;;13.18;80.84
72370;BME280;60343;-32.030;115.880;2022-08-19T00:16:54;103126.75;;;13.24;80.43
72370;BME280;60343;-32.030;115.880;2022-08-19T00:19:27;103126.50;;;13.27;81.25
72370;BME280;60343;-32.030;115.880;2022-08-19T00:21:55;103122.56;;;13.31;81.26
72370;BME280;60343;-32.030;115.880;2022-08-19T00:24:23;103140.84;;;13.38;81.09
72370;BME280;60343;-32.030;115.880;2022-08-19T00:26:51;103142.41;;;13.40;80.29
72370;BME280;60343;-32.030;115.880;2022-08-19T00:29:21;103153.63;;;13.45;80.42
72370;BME280;60343;-32.030;115.880;2022-08-19T00:31:51;103163.13;;;13.49;81.32
72370;BME280;60343;-32.030;115.880;2022-08-19T00:34:19;103169.25;;;13.51;77.51
72370;BME280;60343;-32.030;115.880;2022-08-19T00:36:53;103180.97;;;13.50;81.59
72370;BME280;60343;-32.030;115.880;2022-08-19T00:39:20;103183.78;;;13.49;80.56
72370;BME280;60343;-32.030;115.880;2022-08-19T00:41:49;103184.94;;;13.46;84.64
72370;BME280;60343;-32.030;115.880;2022-08-19T00:44:19;103186.66;;;13.47;84.65
72370;BME280;60343;-32.030;115.880;2022-08-19T00:46:48;103184.19;;;13.44;86.38
72370;BME280;60343;-32.030;115.880;2022-08-19T00:49:18;103187.03;;;13.43;87.18
72370;BME280;60343;-32.030;115.880;2022-08-19T00:51:58;103181.78;;;13.41;85.34
72370;BME280;60343;-32.030;115.880;2022-08-19T00:54:27;103182.88;;;13.39;83.83
72370;BME280;60343;-32.030;115.880;2022-08-19T00:57:16;103177.66;;;13.37;84.61
72370;BME280;60343;-32.030;115.880;2022-08-19T00:59:47;103176.81;;;13.37;84.78
72370;BME280;60343;-32.030;115.880;2022-08-19T01:02:15;103176.41;;;13.41;82.90
72370;BME280;60343;-32.030;115.880;2022-08-19T01:04:43;103178.00;;;13.84;81.28
72370;BME280;60343;-32.030;115.880;2022-08-19T01:07:16;103165.91;;;14.87;80.07
72370;BME280;60343;-32.030;115.880;2022-08-19T01:09:45;103153.19;;;15.82;76.15
72370;BME280;60343;-32.030;115.880;2022-08-19T01:12:12;103158.22;;;16.67;75.68
72370;BME280;60343;-32.030;115.880;2022-08-19T01:14:40;103149.47;;;17.42;73.71
72370;BME280;60343;-32.030;115.880;2022-08-19T01:17:09;103155.38;;;17.97;67.75
72370;BME280;60343;-32.030;115.880;2022-08-19T01:19:40;103151.25;;;18.35;71.17
72370;BME280;60343;-32.030;115.880;2022-08-19T01:22:18;103154.84;;;18.52;66.13
72370;BME280;60343;-32.030;115.880;2022-08-19T01:24:52;103145.06;;;18.75;67.70
72370;BME280;60343;-32.030;115.880;2022-08-19T01:27:20;103149.81;;;18.90;66.49
72370;BME280;60343;-32.030;115.880;2022-08-19T01:29:48;103140.13;;;19.03;65.92
72370;BME280;60343;-32.030;115.880;2022-08-19T01:32:16;103136.19;;;19.22;68.52
72370;BME280;60343;-32.030;115.880;2022-08-19T01:34:44;103144.84;;;19.50;68.41
72370;BME280;60343;-32.030;115.880;2022-08-19T01:37:13;103134.19;;;19.79;69.12
72370;BME280;60343;-32.030;115.880;2022-08-19T01:39:41;103140.38;;;20.04;68.21
72370;BME280;60343;-32.030;115.880;2022-08-19T01:42:14;103140.22;;;20.28;67.26
72370;BME280;60343;-32.030;115.880;2022-08-19T01:44:42;103136.63;;;20.59;66.94
72370;BME280;60343;-32.030;115.880;2022-08-19T01:47:10;103136.22;;;20.70;66.25
72370;BME280;60343;-32.030;115.880;2022-08-19T01:49:38;103131.22;;;20.36;66.37
72370;BME280;60343;-32.030;115.880;2022-08-19T01:52:06;103132.09;;;19.89;67.46
72370;BME280;60343;-32.030;115.880;2022-08-19T01:54:33;103130.66;;;19.70;67.96
72370;BME280;60343;-32.030;115.880;2022-08-19T01:57:03;103134.81;;;19.89;68.09
72370;BME280;60343;-32.030;115.880;2022-08-19T01:59:38;103128.56;;;20.50;67.16
72370;BME280;60343;-32.030;115.880;2022-08-19T02:02:07;103132.88;;;20.82;66.04
72370;BME280;60343;-32.030;115.880;2022-08-19T02:04:34;103128.19;;;21.28;58.29
72370;BME280;60343;-32.030;115.880;2022-08-19T02:07:02;103128.88;;;21.30;58.60
72370;BME280;60343;-32.030;115.880;2022-08-19T02:09:31;103130.84;;;21.22;59.95
72370;BME280;60343;-32.030;115.880;2022-08-19T02:11:59;103123.06;;;20.73;60.65
72370;BME280;60343;-32.030;115.880;2022-08-19T02:14:27;103115.72;;;20.28;61.85
72370;BME280;60343;-32.030;115.880;2022-08-19T02:17:01;103112.94;;;19.83;63.54
72370;BME280;60343;-32.030;115.880;2022-08-19T02:19:29;103128.34;;;19.43;67.03
72370;BME280;60343;-32.030;115.880;2022-08-19T02:21:57;103122.97;;;19.19;65.52
72370;BME280;60343;-32.030;115.880;2022-08-19T02:24:25;103125.50;;;19.45;67.63
72370;BME280;60343;-32.030;115.880;2022-08-19T02:26:52;103117.19;;;19.46;62.64
72370;BME280;60343;-32.030;115.880;2022-08-19T02:29:20;103118.75;;;19.08;72.09
72370;BME280;60343;-32.030;115.880;2022-08-19T02:31:48;103120.63;;;18.59;68.20
72370;BME280;60343;-32.030;115.880;2022-08-19T02:34:21;103119.69;;;18.10;74.15
72370;BME280;60343;-32.030;115.880;2022-08-19T02:36:49;103123.28;;;17.77;71.32
72370;BME280;60343;-32.030;115.880;2022-08-19T02:39:16;103120.06;;;17.47;74.56
72370;BME280;60343;-32.030;115.880;2022-08-19T02:41:44;103123.59;;;17.40;74.23
72370;BME280;60343;-32.030;115.880;2022-08-19T02:44:12;103118.81;;;17.34;71.33
72370;BME280;60343;-32.030;115.880;2022-08-19T02:46:40;103124.03;;;17.35;74.17
72370;BME280;60343;-32.030;115.880;2022-08-19T02:49:08;103114.06;;;18.12;72.45
72370;BME280;60343;-32.030;115.880;2022-08-19T02:51:42;103106.22;;;18.75;68.26
72370;BME280;60343;-32.030;115.880;2022-08-19T02:54:11;103110.94;;;19.13;70.02
72370;BME280;60343;-32.030;115.880;2022-08-19T02:56:40;103102.34;;;19.57;65.73
72370;BME280;60343;-32.030;115.880;2022-08-19T02:59:08;103101.31;;;19.58;63.26
72370;BME280;60343;-32.030;115.880;2022-08-19T03:01:36;103098.44;;;19.59;63.89
72370;BME280;60343;-32.030;115.880;2022-08-19T03:04:05;103089.75;;;19.64;66.59
72370;BME280;60343;-32.030;115.880;2022-08-19T03:06:42;103092.88;;;19.84;65.91
72370;BME280;60343;-32.030;115.880;2022-08-19T03:09:11;103084.91;;;20.13;63.64
72370;BME280;60343;-32.030;115.880;2022-08-19T03:11:40;103098.63;;;20.20;63.83
72370;BME280;60343;-32.030;115.880;2022-08-19T03:14:08;103085.09;;;20.11;63.86
72370;BME280;60343;-32.030;115.880;2022-08-19T03:16:42;103091.47;;;19.96;63.88
72370;BME280;60343;-32.030;115.880;2022-08-19T03:19:10;103091.38;;;19.81;63.99
72370;BME280;60343;-32.030;115.880;2022-08-19T03:21:44;103086.34;;;19.70;64.57
72370;BME280;60343;-32.030;115.880;2022-08-19T03:24:13;103087.88;;;19.64;65.10
72370;BME280;60343;-32.030;115.880;2022-08-19T03:26:41;103084.03;;;19.51;69.33
72370;BME280;60343;-32.030;115.880;2022-08-19T03:29:09;103078.78;;;19.41;64.59
72370;BME280;60343;-32.030;115.880;2022-08-19T03:31:38;103075.22;;;19.33;66.87
72370;BME280;60343;-32.030;115.880;2022-08-19T03:34:06;103077.63;;;19.36;68.09
72370;BME280;60343;-32.030;115.880;2022-08-19T03:36:34;103080.50;;;19.34;70.11
72370;BME280;60343;-32.030;115.880;2022-08-19T03:39:09;103073.03;;;19.28;70.93
72370;BME280;60343;-32.030;115.880;2022-08-19T03:41:38;103069.69;;;19.18;69.93
72370;BME280;60343;-32.030;115.880;2022-08-19T03:44:06;103066.66;;;18.97;66.44
72370;BME280;60343;-32.030;115.880;2022-08-19T03:46:34;103063.97;;;18.72;68.55
72370;BME280;60343;-32.030;115.880;2022-08-19T03:49:04;103057.06;;;18.70;67.69
72370;BME280;60343;-32.030;115.880;2022-08-19T03:51:33;103061.38;;;19.19;67.64
72370;BME280;60343;-32.030;115.880;2022-08-19T03:54:08;103053.66;;;19.78;63.71
72370;BME280;60343;-32.030;115.880;2022-08-19T03:56:37;103050.13;;;20.69;64.32
72370;BME280;60343;-32.030;115.880;2022-08-19T03:59:07;103048.16;;;21.29;59.74
72370;BME280;60343;-32.030;115.880;2022-08-19T04:01:35;103045.31;;;21.67;58.97
72370;BME280;60343;-32.030;115.880;2022-08-19T04:04:03;103042.84;;;21.72;60.05
72370;BME280;60343;-32.030;115.880;2022-08-19T04:06:32;103041.31;;;21.19;60.41
72370;BME280;60343;-32.030;115.880;2022-08-19T04:09:08;103052.78;;;20.62;62.24
72370;BME280;60343;-32.030;115.880;2022-08-19T04:11:39;103042.06;;;20.15;66.84
72370;BME280;60343;-32.030;115.880;2022-08-19T04:14:07;103030.31;;;19.92;62.96
72370;BME280;60343;-32.030;115.880;2022-08-19T04:16:36;103033.03;;;19.92;66.69
72370;BME280;60343;-32.030;115.880;2022-08-19T04:19:05;103029.72;;;20.27;61.52
72370;BME280;60343;-32.030;115.880;2022-08-19T04:21:34;103023.91;;;20.30;62.75
72370;BME280;60343;-32.030;115.880;2022-08-19T04:24:08;103017.81;;;20.28;64.13
72370;BME280;60343;-32.030;115.880;2022-08-19T04:26:36;103011.88;;;20.47;59.29
72370;BME280;60343;-32.030;115.880;2022-08-19T04:29:07;103010.03;;;20.63;59.83
72370;BME280;60343;-32.030;115.880;2022-08-19T04:32:00;103001.38;;;20.82;60.27
72370;BME280;60343;-32.030;115.880;2022-08-19T04:34:29;102997.13;;;20.94;60.57
72370;BME280;60343;-32.030;115.880;2022-08-19T04:36:58;103004.63;;;20.77;62.97
72370;BME280;60343;-32.030;115.880;2022-08-19T04:39:31;102996.53;;;20.54;62.68
72370;BME280;60343;-32.030;115.880;2022-08-19T04:41:59;102989.19;;;20.40;60.94
72370;BME280;60343;-32.030;115.880;2022-08-19T04:44:27;102985.16;;;20.28;64.39
72370;BME280;60343;-32.030;115.880;2022-08-19T04:46:58;102985.84;;;20.30;61.77
72370;BME280;60343;-32.030;115.880;2022-08-19T04:49:26;102978.88;;;20.50;59.63
72370;BME280;60343;-32.030;115.880;2022-08-19T04:51:54;102971.59;;;20.80;60.32
72370;BME280;60343;-32.030;115.880;2022-08-19T04:54:23;102967.00;;;20.95;60.29
72370;BME280;60343;-32.030;115.880;2022-08-19T04:56:59;102962.00;;;21.28;57.02
72370;BME280;60343;-32.030;115.880;2022-08-19T04:59:26;102965.28;;;21.09;61.15
72370;BME280;60343;-32.030;115.880;2022-08-19T05:01:54;102956.38;;;20.86;61.66
72370;BME280;60343;-32.030;115.880;2022-08-19T05:04:21;102953.16;;;20.68;60.96
72370;BME280;60343;-32.030;115.880;2022-08-19T05:06:49;102956.34;;;20.42;63.26
72370;BME280;60343;-32.030;115.880;2022-08-19T05:09:17;102951.88;;;20.26;62.32
72370;BME280;60343;-32.030;115.880;2022-08-19T05:11:45;102942.06;;;20.17;60.69
72370;BME280;60343;-32.030;115.880;2022-08-19T05:14:18;102934.13;;;19.93;62.45
72370;BME280;60343;-32.030;115.880;2022-08-19T05:16:46;102930.75;;;19.91;65.77
72370;BME280;60343;-32.030;115.880;2022-08-19T05:19:13;102917.28;;;19.75;63.88
72370;BME280;60343;-32.030;115.880;2022-08-19T05:21:42;102927.91;;;19.84;66.09
72370;BME280;60343;-32.030;115.880;2022-08-19T05:24:10;102931.19;;;20.17;63.64
72370;BME280;60343;-32.030;115.880;2022-08-19T05:26:38;102922.31;;;20.61;63.19
72370;BME280;60343;-32.030;115.880;2022-08-19T05:29:07;102917.59;;;20.69;63.57
72370;BME280;60343;-32.030;115.880;2022-08-19T05:31:40;102917.50;;;20.77;63.43
72370;BME280;60343;-32.030;115.880;2022-08-19T05:34:09;102906.38;;;20.72;61.34
72370;BME280;60343;-32.030;115.880;2022-08-19T05:36:40;102909.34;;;20.48;62.69
72370;BME280;60343;-32.030;115.880;2022-08-19T05:39:10;102906.72;;;20.40;64.80
72370;BME280;60343;-32.030;115.880;2022-08-19T05:41:42;102901.38;;;20.32;64.13
72370;BME280;60343;-32.030;115.880;2022-08-19T05:44:10;102899.13;;;20.27;66.75
72370;BME280;60343;-32.030;115.880;2022-08-19T05:46:44;102893.41;;;20.22;68.22
72370;BME280;60343;-32.030;115.880;2022-08-19T05:49:12;102890.03;;;20.05;65.34
72370;BME280;60343;-32.030;115.880;2022-08-19T05:51:40;102894.50;;;19.98;66.20
72370;BME280;60343;-32.030;115.880;2022-08-19T05:54:08;102890.47;;;19.94;65.07
72370;BME280;60343;-32.030;115.880;2022-08-19T05:56:36;102893.00;;;19.96;62.82
72370;BME280;60343;-32.030;115.880;2022-08-19T05:59:04;102889.31;;;19.89;63.15
72370;BME280;60343;-32.030;115.880;2022-08-19T06:01:34;102885.19;;;19.93;61.27
72370;BME280;60343;-32.030;115.880;2022-08-19T06:04:08;102876.22;;;20.44;65.07
72370;BME280;60343;-32.030;115.880;2022-08-19T06:06:36;102883.31;;;21.04;61.46
72370;BME280;60343;-32.030;115.880;2022-08-19T06:09:05;102878.66;;;21.55;59.72
72370;BME280;60343;-32.030;115.880;2022-08-19T06:11:36;102871.00;;;21.87;57.78
72370;BME280;60343;-32.030;115.880;2022-08-19T06:14:06;102870.22;;;21.93;58.29
72370;BME280;60343;-32.030;115.880;2022-08-19T06:16:35;102870.09;;;22.29;56.38
72370;BME280;60343;-32.030;115.880;2022-08-19T06:19:12;102863.94;;;22.54;55.58
72370;BME280;60343;-32.030;115.880;2022-08-19T06:21:41;102864.03;;;22.67;55.05
72370;BME280;60343;-32.030;115.880;2022-08-19T06:24:11;102867.97;;;22.99;56.60
72370;BME280;60343;-32.030;115.880;2022-08-19T06:26:41;102863.59;;;23.05;55.91
72370;BME280;60343;-32.030;115.880;2022-08-19T06:29:10;102870.31;;;22.34;59.92
72370;BME280;60343;-32.030;115.880;2022-08-19T06:31:41;102865.94;;;21.83;59.09
72370;BME280;60343;-32.030;115.880;2022-08-19T06:34:15;102877.13;;;21.67;56.67
72370;BME280;60343;-32.030;115.880;2022-08-19T06:36:46;102878.06;;;21.17;60.63
72370;BME280;60343;-32.030;115.880;2022-08-19T06:39:16;102876.50;;;20.79;58.70
72370;BME280;60343;-32.030;115.880;2022-08-19T06:41:46;102873.69;;;20.72;57.59
72370;BME280;60343;-32.030;115.880;2022-08-19T06:44:14;102872.94;;;20.64;60.00
72370;BME280;60343;-32.030;115.880;2022-08-19T06:46:42;102869.84;;;20.52;62.21
72370;BME280;60343;-32.030;115.880;2022-08-19T06:49:16;102867.50;;;20.34;62.21
72370;BME280;60343;-32.030;115.880;2022-08-19T06:51:45;102871.94;;;20.27;59.73
72370;BME280;60343;-32.030;115.880;2022-08-19T06:54:14;102874.31;;;20.30;60.57
72370;BME280;60343;-32.030;115.880;2022-08-19T06:56:42;102867.31;;;20.13;61.31
72370;BME280;60343;-32.030;115.880;2022-08-19T06:59:13;102863.84;;;20.04;59.90
72370;BME280;60343;-32.030;115.880;2022-08-19T07:01:44;102866.69;;;20.11;57.24
72370;BME280;60343;-32.030;115.880;2022-08-19T07:04:20;102868.53;;;19.96;58.17
72370;BME280;60343;-32.030;115.880;2022-08-19T07:06:48;102860.28;;;20.04;57.85
72370;BME280;60343;-32.030;115.880;2022-08-19T07:09:18;102878.78;;;20.23;57.71
72370;BME280;60343;-32.030;115.880;2022-08-19T07:11:47;102878.44;;;20.26;59.41
72370;BME280;60343;-32.030;115.880;2022-08-19T07:14:17;102872.47;;;20.08;66.00
72370;BME280;60343;-32.030;115.880;2022-08-19T07:16:45;102869.75;;;20.08;60.97
72370;BME280;60343;-32.030;115.880;2022-08-19T07:19:18;102876.06;;;20.23;59.55
72370;BME280;60343;-32.030;115.880;2022-08-19T07:21:48;102875.72;;;20.26;61.02
72370;BME280;60343;-32.030;115.880;2022-08-19T07:24:16;102869.13;;;20.21;62.23
72370;BME280;60343;-32.030;115.880;2022-08-19T07:26:44;102871.75;;;20.14;60.29
72370;BME280;60343;-32.030;115.880;2022-08-19T07:29:12;102868.72;;;20.09;61.67
72370;BME280;60343;-32.030;115.880;2022-08-19T07:31:40;102882.19;;;19.88;62.99
72370;BME280;60343;-32.030;115.880;2022-08-19T07:34:10;102878.47;;;19.66;64.50
72370;BME280;60343;-32.030;115.880;2022-08-19T07:36:47;102875.25;;;19.62;63.04
72370;BME280;60343;-32.030;115.880;2022-08-19T07:39:16;102877.25;;;19.68;61.65
72370;BME280;60343;-32.030;115.880;2022-08-19T07:41:44;102873.09;;;19.81;63.17
72370;BME280;60343;-32.030;115.880;2022-08-19T07:44:13;102873.78;;;20.12;62.52
72370;BME280;60343;-32.030;115.880;2022-08-19T07:46:45;102870.06;;;20.28;60.33
72370;BME280;60343;-32.030;115.880;2022-08-19T07:49:14;102863.19;;;20.40;60.34
72370;BME280;60343;-32.030;115.880;2022-08-19T07:51:49;102863.13;;;20.25;63.06
72370;BME280;60343;-32.030;115.880;2022-08-19T07:54:18;102864.53;;;20.21;62.26
72370;BME280;60343;-32.030;115.880;2022-08-19T07:56:46;102870.34;;;20.18;61.65
72370;BME280;60343;-32.030;115.880;2022-08-19T07:59:14;102866.59;;;20.19;65.58
72370;BME280;60343;-32.030;115.880;2022-08-19T08:01:42;102867.88;;;20.31;65.91
72370;BME280;60343;-32.030;115.880;2022-08-19T08:04:10;102863.19;;;20.54;63.51
72370;BME280;60343;-32.030;115.880;2022-08-19T08:06:38;102859.44;;;20.55;63.49
72370;BME280;60343;-32.030;115.880;2022-08-19T08:09:11;102857.38;;;20.72;59.62
72370;BME280;60343;-32.030;115.880;2022-08-19T08:11:40;102850.16;;;21.01;58.64
72370;BME280;60343;-32.030;115.880;2022-08-19T08:14:08;102850.19;;;21.36;65.11
72370;BME280;60343;-32.030;115.880;2022-08-19T08:16:36;102857.59;;;21.43;64.20
72370;BME280;60343;-32.030;115.880;2022-08-19T08:19:05;102861.41;;;21.27;63.15
72370;BME280;60343;-32.030;115.880;2022-08-19T08:21:33;102861.38;;;20.91;67.21
72370;BME280;60343;-32.030;115.880;2022-08-19T08:24:01;102865.22;;;20.52;60.36
72370;BME280;60343;-32.030;115.880;2022-08-19T08:26:34;102869.72;;;19.93;71.18
72370;BME280;60343;-32.030;115.880;2022-08-19T08:29:02;102868.44;;;19.66;63.74
72370;BME280;60343;-32.030;115.880;2022-08-19T08:31:30;102867.00;;;19.25;68.41
72370;BME280;60343;-32.030;115.880;2022-08-19T08:33:58;102862.69;;;19.08;67.11
72370;BME280;60343;-32.030;115.880;2022-08-19T08:36:26;102874.34;;;18.85;69.69
72370;BME280;60343;-32.030;115.880;2022-08-19T08:38:54;102871.47;;;18.79;69.60
72370;BME280;60343;-32.030;115.880;2022-08-19T08:41:34;102875.47;;;18.60;73.98
72370;BME280;60343;-32.030;115.880;2022-08-19T08:44:04;102879.84;;;18.61;69.06
72370;BME280;60343;-32.030;115.880;2022-08-19T08:46:35;102883.56;;;18.68;68.32
72370;BME280;60343;-32.030;115.880;2022-08-19T08:49:10;102886.16;;;18.54;68.93
72370;BME280;60343;-32.030;115.880;2022-08-19T08:51:43;102891.06;;;18.50;69.45
72370;BME280;60343;-32.030;115.880;2022-08-19T08:54:14;102887.38;;;18.35;70.22
72370;BME280;60343;-32.030;115.880;2022-08-19T08:56:50;102887.88;;;18.30;71.50
72370;BME280;60343;-32.030;115.880;2022-08-19T08:59:24;102893.63;;;18.35;70.21
72370;BME280;60343;-32.030;115.880;2022-08-19T09:01:54;102888.72;;;18.23;71.10
72370;BME280;60343;-32.030;115.880;2022-08-19T09:04:21;102889.41;;;18.25;70.23
72370;BME280;60343;-32.030;115.880;2022-08-19T09:06:53;102896.38;;;18.03;72.36
72370;BME280;60343;-32.030;115.880;2022-08-19T09:09:26;102899.63;;;17.90;73.63
72370;BME280;60343;-32.030;115.880;2022-08-19T09:12:06;102895.53;;;18.02;70.92
72370;BME280;60343;-32.030;115.880;2022-08-19T09:14:43;102896.38;;;17.87;71.64
72370;BME280;60343;-32.030;115.880;2022-08-19T09:17:13;102895.03;;;17.75;73.55
72370;BME280;60343;-32.030;115.880;2022-08-19T09:19:52;102902.81;;;17.70;73.32
72370;BME280;60343;-32.030;115.880;2022-08-19T09:22:20;102901.28;;;17.59;74.13
72370;BME280;60343;-32.030;115.880;2022-08-19T09:24:49;102901.06;;;17.52;74.68
72370;BME280;60343;-32.030;115.880;2022-08-19T09:27:23;102903.06;;;17.50;74.27
72370;BME280;60343;-32.030;115.880;2022-08-19T09:29:52;102908.28;;;17.28;77.70
72370;BME280;60343;-32.030;115.880;2022-08-19T09:32:20;102913.34;;;17.14;77.36
72370;BME280;60343;-32.030;115.880;2022-08-19T09:34:49;102920.41;;;17.07;77.77
72370;BME280;60343;-32.030;115.880;2022-08-19T09:37:16;102921.38;;;16.98;77.96
72370;BME280;60343;-32.030;115.880;2022-08-19T09:39:44;102929.34;;;17.00;77.07
72370;BME280;60343;-32.030;115.880;2022-08-19T09:42:12;102925.91;;;16.90;78.19
72370;BME280;60343;-32.030;115.880;2022-08-19T09:44:45;102936.19;;;16.86;77.44
72370;BME280;60343;-32.030;115.880;2022-08-19T09:47:13;102935.66;;;16.75;78.42
72370;BME280;60343;-32.030;115.880;2022-08-19T09:49:42;102941.00;;;16.66;77.73
72370;BME280;60343;-32.030;115.880;2022-08-19T09:52:10;102938.81;;;16.70;77.20
72370;BME280;60343;-32.030;115.880;2022-08-19T09:54:38;102950.66;;;16.69;77.69
72370;BME280;60343;-32.030;115.880;2022-08-19T09:57:06;102944.50;;;16.59;80.05
72370;BME280;60343;-32.030;115.880;2022-08-19T09:59:34;102946.59;;;16.47;81.31
72370;BME280;60343;-32.030;115.880;2022-08-19T10:02:07;102949.63;;;16.44;79.63
72370;BME280;60343;-32.030;115.880;2022-08-19T10:04:35;102953.09;;;16.37;81.29
72370;BME280;60343;-32.030;115.880;2022-08-19T10:07:03;102957.97;;;16.33;81.40
72370;BME280;60343;-32.030;115.880;2022-08-19T10:09:31;102967.25;;;16.30;80.11
72370;BME280;60343;-32.030;115.880;2022-08-19T10:11:59;102968.28;;;16.29;80.10
72370;BME280;60343;-32.030;115.880;2022-08-19T10:14:27;102971.25;;;16.26;80.50
72370;BME280;60343;-32.030;115.880;2022-08-19T10:16:55;102966.25;;;16.31;80.50
72370;BME280;60343;-32.030;115.880;2022-08-19T10:19:28;102971.13;;;16.28;81.46
72370;BME280;60343;-32.030;115.880;2022-08-19T10:21:56;102976.38;;;16.29;80.12
72370;BME280;60343;-32.030;115.880;2022-08-19T10:24:23;102984.78;;;16.26;79.80
72370;BME280;60343;-32.030;115.880;2022-08-19T10:26:51;102985.41;;;16.20;80.50
72370;BME280;60343;-32.030;115.880;2022-08-19T10:29:19;102986.44;;;16.19;79.93
72370;BME280;60343;-32.030;115.880;2022-08-19T10:31:47;102993.84;;;16.17;81.84
72370;BME280;60343;-32.030;115.880;2022-08-19T10:34:14;102994.81;;;16.16;81.41
72370;BME280;60343;-32.030;115.880;2022-08-19T10:36:47;102997.00;;;16.13;82.81
72370;BME280;60343;-32.030;115.880;2022-08-19T10:39:15;103006.97;;;16.12;81.27
72370;BME280;60343;-32.030;115.880;2022-08-19T10:41:43;103010.38;;;16.14;82.19
72370;BME280;60343;-32.030;115.880;2022-08-19T10:44:12;103005.56;;;16.08;83.74
72370;BME280;60343;-32.030;115.880;2022-08-19T10:46:41;103018.38;;;16.06;83.36
72370;BME280;60343;-32.030;115.880;2022-08-19T10:49:11;103015.00;;;16.04;82.97
72370;BME280;60343;-32.030;115.880;2022-08-19T10:51:39;103020.69;;;16.01;83.93
72370;BME280;60343;-32.030;115.880;2022-08-19T10:54:12;103026.25;;;16.00;83.67
72370;BME280;60343;-32.030;115.880;2022-08-19T10:56:40;103026.47;;;16.06;80.80
72370;BME280;60343;-32.030;115.880;2022-08-19T10:59:08;103028.34;;;16.06;81.54
72370;BME280;60343;-32.030;115.880;2022-08-19T11:01:36;103034.91;;;16.03;82.42
72370;BME280;60343;-32.030;115.880;2022-08-19T11:04:04;103031.66;;;16.00;83.14
72370;BME280;60343;-32.030;115.880;2022-08-19T11:06:32;103036.50;;;15.96;82.44
72370;BME280;60343;-32.030;115.880;2022-08-19T11:09:00;103044.47;;;15.98;81.83
72370;BME280;60343;-32.030;115.880;2022-08-19T11:11:34;103043.94;;;15.94;83.42
72370;BME280;60343;-32.030;115.880;2022-08-19T11:14:02;103047.78;;;15.92;84.56
72370;BME280;60343;-32.030;115.880;2022-08-19T11:16:29;103045.53;;;15.87;83.17
72370;BME280;60343;-32.030;115.880;2022-08-19T11:18:59;103057.06;;;15.89;85.36
72370;BME280;60343;-32.030;115.880;2022-08-19T11:21:29;103053.09;;;15.83;86.70
72370;BME280;60343;-32.030;115.880;2022-08-19T11:23:59;103047.44;;;15.77;86.13
72370;BME280;60343;-32.030;115.880;2022-08-19T11:26:36;103049.56;;;15.83;84.62
72370;BME280;60343;-32.030;115.880;2022-08-19T11:29:04;103053.25;;;15.82;85.42
72370;BME280;60343;-32.030;115.880;2022-08-19T11:31:34;103058.97;;;15.79;85.06
72370;BME280;60343;-32.030;115.880;2022-08-19T11:34:05;103057.25;;;15.78;85.72
72370;BME280;60343;-32.030;115.880;2022-08-19T11:36:33;103061.09;;;15.75;87.00
72370;BME280;60343;-32.030;115.880;2022-08-19T11:39:01;103058.56;;;15.74;83.61
72370;BME280;60343;-32.030;115.880;2022-08-19T11:41:29;103056.56;;;15.76;82.75
72370;BME280;60343;-32.030;115.880;2022-08-19T11:44:03;103056.69;;;15.74;83.79
72370;BME280;60343;-32.030;115.880;2022-08-19T11:46:31;103051.47;;;15.73;85.17
72370;BME280;60343;-32.030;115.880;2022-08-19T11:48:59;103048.06;;;15.71;87.40
72370;BME280;60343;-32.030;115.880;2022-08-19T11:51:30;103053.75;;;15.68;88.04
72370;BME280;60343;-32.030;115.880;2022-08-19T11:53:59;103046.13;;;15.63;86.77
72370;BME280;60343;-32.030;115.880;2022-08-19T11:56:28;103060.63;;;15.62;86.13
72370;BME280;60343;-32.030;115.880;2022-08-19T11:59:02;103067.84;;;15.62;86.28
72370;BME280;60343;-32.030;115.880;2022-08-19T12:01:30;103070.56;;;15.62;86.20
72370;BME280;60343;-32.030;115.880;2022-08-19T12:03:58;103068.19;;;15.59;88.17
72370;BME280;60343;-32.030;115.880;2022-08-19T12:06:27;103072.31;;;15.53;88.60
72370;BME280;60343;-32.030;115.880;2022-08-19T12:08:56;103077.13;;;15.50;88.42
72370;BME280;60343;-32.030;115.880;2022-08-19T12:11:24;103071.31;;;15.44;88.97
72370;BME280;60343;-32.030;115.880;2022-08-19T12:13:52;103070.22;;;15.37;89.30
72370;BME280;60343;-32.030;115.880;2022-08-19T12:16:28;103078.47;;;15.36;89.71
72370;BME280;60343;-32.030;115.880;2022-08-19T12:18:56;103078.06;;;15.31;89.43
72370;BME280;60343;-32.030;115.880;2022-08-19T12:21:25;103079.50;;;15.25;89.47
72370;BME280;60343;-32.030;115.880;2022-08-19T12:23:53;103083.63;;;15.20;90.16
72370;BME280;60343;-32.030;115.880;2022-08-19T12:26:22;103079.66;;;15.14;90.08
72370;BME280;60343;-32.030;115.880;2022-08-19T12:28:49;103090.03;;;15.09;90.16
72370;BME280;60343;-32.030;115.880;2022-08-19T12:31:17;103091.34;;;15.05;90.32
72370;BME280;60343;-32.030;115.880;2022-08-19T12:33:51;103092.75;;;14.99;90.92